createdAt,value
2023-05-08T00:00:28.586Z,16.21
2023-05-08T00:05:21.874Z,16.16
2023-05-08T00:10:15.169Z,16.10
2023-05-08T00:15:11.274Z,16.02
2023-05-08T00:20:04.551Z,16.05
2023-05-08T00:24:57.541Z,16.08
2023-05-08T00:29:50.917Z,16.03
2023-05-08T00:34:45.422Z,15.97
2023-05-08T00:39:38.480Z,16.01
2023-05-08T00:44:31.671Z,15.94
2023-05-08T00:49:25.253Z,15.99
2023-05-08T00:54:20.622Z,15.97
2023-05-08T00:59:16.239Z,16.02
2023-05-08T01:04:09.501Z,15.92
2023-05-08T01:09:02.941Z,15.85
2023-05-08T01:14:09.027Z,15.73
2023-05-08T01:19:08.558Z,15.94
2023-05-08T01:24:26.426Z,15.89
2023-05-08T01:30:01.138Z,16.02
2023-05-08T01:35:04.570Z,16.04
2023-05-08T01:40:10.051Z,16.07
2023-05-08T01:45:09.144Z,15.86
2023-05-08T01:50:07.445Z,15.98
2023-05-08T01:55:04.693Z,16.02
2023-05-08T02:00:01.723Z,16.04
2023-05-08T02:04:55.925Z,15.85
2023-05-08T02:09:52.614Z,16.00
2023-05-08T02:14:49.235Z,16.03
2023-05-08T02:19:43.982Z,16.03
2023-05-08T02:24:38.290Z,15.92
2023-05-08T02:29:33.667Z,16.04
2023-05-08T02:34:28.155Z,15.99
2023-05-08T02:39:23.126Z,16.05
2023-05-08T02:44:17.175Z,16.05
2023-05-08T02:49:21.666Z,16.03
2023-05-08T02:54:20.002Z,15.94
2023-05-08T02:59:20.400Z,15.68
2023-05-08T03:04:25.690Z,15.72
2023-05-08T03:09:21.575Z,15.64
2023-05-08T03:14:19.064Z,15.49
2023-05-08T03:19:23.155Z,15.54
2023-05-08T03:24:19.444Z,15.38
2023-05-08T03:29:15.762Z,15.52
2023-05-08T03:34:11.038Z,15.40
2023-05-08T03:39:07.756Z,15.31
2023-05-08T03:44:03.559Z,15.40
2023-05-08T03:48:57.083Z,15.48
2023-05-08T03:53:50.471Z,15.48
2023-05-08T03:58:51.879Z,15.42
2023-05-08T04:03:57.603Z,15.39
2023-05-08T04:08:56.668Z,15.26
2023-05-08T04:13:58.715Z,15.41
2023-05-08T04:18:59.523Z,15.44
2023-05-08T04:23:54.508Z,15.48
2023-05-08T04:28:47.871Z,15.45
2023-05-08T04:33:44.123Z,15.47
2023-05-08T04:38:38.162Z,15.44
2023-05-08T04:43:34.093Z,15.39
2023-05-08T04:48:27.675Z,15.43
2023-05-08T04:53:22.178Z,15.57
2023-05-08T04:58:15.433Z,15.63
2023-05-08T05:03:08.772Z,15.62
2023-05-08T05:08:01.927Z,15.70
2023-05-08T05:12:57.076Z,15.77
2023-05-08T05:17:50.442Z,15.90
2023-05-08T05:22:43.666Z,15.97
2023-05-08T05:27:37.674Z,16.02
2023-05-08T05:32:33.906Z,16.12
2023-05-08T05:37:27.552Z,16.34
2023-05-08T05:42:21.692Z,16.51
2023-05-08T05:47:14.806Z,16.62
2023-05-08T05:52:09.692Z,16.74
2023-05-08T05:57:03.375Z,16.97
2023-05-08T06:01:56.651Z,17.03
2023-05-08T06:06:49.923Z,16.98
2023-05-08T06:11:44.470Z,16.98
2023-05-08T06:16:37.741Z,17.16
2023-05-08T06:21:31.281Z,17.33
2023-05-08T06:26:24.662Z,17.40
2023-05-08T06:31:19.484Z,17.61
2023-05-08T06:36:13.154Z,17.81
2023-05-08T06:41:06.456Z,17.95
2023-05-08T06:45:59.575Z,18.12
2023-05-08T06:50:54.054Z,18.25
2023-05-08T06:55:47.445Z,18.36
2023-05-08T07:00:40.593Z,18.43
2023-05-08T07:05:33.795Z,18.71
2023-05-08T07:10:28.260Z,18.78
2023-05-08T07:15:26.642Z,18.96
2023-05-08T07:20:20.431Z,19.17
2023-05-08T07:25:14.004Z,19.35
2023-05-08T07:30:10.781Z,19.35
2023-05-08T07:35:06.838Z,19.55
2023-05-08T07:40:00.747Z,19.75
2023-05-08T07:44:55.151Z,19.85
2023-05-08T07:49:49.907Z,20.07
2023-05-08T07:54:43.966Z,20.32
2023-05-08T07:59:37.177Z,20.71
2023-05-08T08:04:30.806Z,20.97
2023-05-08T08:09:25.380Z,21.12
2023-05-08T08:14:18.582Z,21.18
2023-05-08T08:19:11.851Z,21.11
2023-05-08T08:24:05.345Z,20.94
2023-05-08T08:28:59.837Z,20.75
2023-05-08T08:33:53.175Z,20.54
2023-05-08T08:38:46.491Z,20.47
2023-05-08T08:43:43.372Z,20.47
2023-05-08T08:48:39.480Z,20.50
2023-05-08T08:53:36.976Z,20.39
2023-05-08T08:58:36.575Z,20.21
2023-05-08T09:03:32.796Z,20.09
2023-05-08T09:08:27.825Z,20.10
2023-05-08T09:13:21.143Z,20.08
2023-05-08T09:18:14.282Z,20.11
2023-05-08T09:23:07.900Z,20.00
2023-05-08T09:28:17.246Z,20.15
2023-05-08T09:33:10.499Z,20.08
2023-05-08T09:38:03.701Z,20.05
2023-05-08T09:42:56.722Z,20.36
2023-05-08T09:47:51.293Z,20.59
2023-05-08T09:52:48.872Z,20.92
2023-05-08T09:57:53.674Z,21.41
2023-05-08T10:02:58.344Z,21.89
2023-05-08T10:07:51.837Z,21.98
2023-05-08T10:12:45.882Z,21.75
2023-05-08T10:17:45.356Z,21.13
2023-05-08T10:22:44.586Z,20.42
2023-05-08T10:27:46.188Z,19.73
2023-05-08T10:32:46.099Z,19.18
2023-05-08T10:37:42.934Z,18.92
2023-05-08T10:42:36.602Z,18.83
2023-05-08T10:47:45.025Z,18.60
2023-05-08T10:52:48.845Z,18.47
2023-05-08T10:57:42.215Z,18.19
2023-05-08T11:02:37.203Z,18.07
2023-05-08T11:07:55.163Z,17.96
2023-05-08T11:12:51.563Z,17.73
2023-05-08T11:17:54.690Z,17.80
2023-05-08T11:22:50.103Z,17.78
2023-05-08T11:28:13.988Z,17.70
2023-05-08T11:33:15.569Z,17.53
2023-05-08T11:38:34.134Z,17.55
2023-05-08T11:43:58.448Z,17.41
2023-05-08T11:49:00.185Z,17.35
2023-05-08T11:53:54.676Z,17.21
2023-05-08T11:58:47.724Z,17.08
2023-05-08T12:03:40.882Z,16.91
2023-05-08T12:08:34.201Z,16.74
2023-05-08T12:13:30.211Z,16.42
2023-05-08T12:18:24.949Z,16.18
2023-05-08T12:23:18.682Z,15.94
2023-05-08T12:28:12.053Z,15.77
2023-05-08T12:33:07.567Z,15.46
2023-05-08T12:38:03.515Z,15.29
2023-05-08T12:42:56.664Z,15.25
2023-05-08T12:47:50.778Z,15.02
2023-05-08T12:52:45.801Z,14.97
2023-05-08T12:57:38.870Z,14.82
2023-05-08T13:02:32.135Z,14.77
2023-05-08T13:07:25.521Z,14.71
2023-05-08T13:12:19.990Z,14.49
2023-05-08T13:17:18.483Z,14.44
2023-05-08T13:22:11.593Z,14.56
2023-05-08T13:27:04.958Z,14.49
2023-05-08T13:31:59.997Z,14.38
2023-05-08T13:36:53.324Z,14.31
2023-05-08T13:41:48.897Z,14.39
2023-05-08T13:46:41.922Z,14.36
2023-05-08T13:51:37.584Z,14.36
2023-05-08T13:56:30.660Z,14.21
2023-05-08T14:01:26.881Z,14.24
2023-05-08T14:06:20.607Z,14.21
2023-05-08T14:11:14.997Z,14.08
2023-05-08T14:16:10.527Z,14.19
2023-05-08T14:21:03.705Z,14.18
2023-05-08T14:25:56.899Z,14.06
2023-05-08T14:30:51.420Z,14.14
2023-05-08T14:35:45.810Z,14.12
2023-05-08T14:40:38.899Z,14.10
2023-05-08T14:45:32.086Z,14.10
2023-05-08T14:50:27.873Z,14.13
2023-05-08T14:55:21.584Z,14.14
2023-05-08T15:00:16.684Z,14.13
2023-05-08T15:05:18.872Z,14.15
2023-05-08T15:10:14.278Z,14.15
2023-05-08T15:15:08.436Z,14.00
2023-05-08T15:20:01.452Z,14.11
2023-05-08T15:24:54.497Z,14.08
2023-05-08T15:29:50.457Z,14.00
2023-05-08T15:34:43.522Z,13.96
2023-05-08T15:39:37.525Z,13.89
2023-05-08T15:44:42.110Z,13.85
2023-05-08T15:49:45.133Z,13.77
2023-05-08T15:54:38.849Z,13.68
2023-05-08T15:59:31.955Z,13.82
2023-05-08T16:04:25.000Z,13.81
2023-05-08T16:09:19.412Z,13.83
2023-05-08T16:14:12.437Z,13.84
2023-05-08T16:19:05.599Z,13.85
2023-05-08T16:23:58.877Z,13.79
2023-05-08T16:28:53.379Z,13.75
2023-05-08T16:33:46.508Z,13.94
2023-05-08T16:38:40.079Z,13.93
2023-05-08T16:43:33.783Z,13.86
2023-05-08T16:48:29.058Z,13.94
2023-05-08T16:53:22.167Z,13.98
2023-05-08T16:58:16.021Z,13.93
2023-05-08T17:03:09.149Z,13.91
2023-05-08T17:08:03.972Z,13.90
2023-05-08T17:12:56.997Z,14.02
2023-05-08T17:17:50.682Z,13.92
2023-05-08T17:22:43.712Z,13.96
2023-05-08T17:27:38.595Z,13.96
2023-05-08T17:32:32.114Z,13.99
2023-05-08T17:37:25.351Z,13.84
2023-05-08T17:42:18.488Z,14.08
2023-05-08T17:47:12.991Z,14.08
2023-05-08T17:52:06.244Z,14.04
2023-05-08T17:56:59.389Z,14.01
2023-05-08T18:01:52.433Z,14.02
2023-05-08T18:06:49.172Z,13.92
2023-05-08T18:11:45.036Z,13.98
2023-05-08T18:16:38.231Z,13.95
2023-05-08T18:21:31.677Z,13.72
2023-05-08T18:26:26.154Z,13.83
2023-05-08T18:31:19.235Z,13.87
2023-05-08T18:36:12.466Z,13.73
2023-05-08T18:41:07.142Z,13.84
2023-05-08T18:46:05.076Z,13.79
2023-05-08T18:50:58.810Z,13.76
2023-05-08T18:55:52.961Z,13.55
2023-05-08T19:00:46.380Z,13.76
2023-05-08T19:05:42.053Z,13.61
2023-05-08T19:10:35.393Z,13.65
2023-05-08T19:15:31.124Z,13.65
2023-05-08T19:20:24.406Z,13.77
2023-05-08T19:25:19.146Z,13.74
2023-05-08T19:30:13.389Z,13.75
2023-05-08T19:35:08.324Z,13.67
2023-05-08T19:40:01.470Z,13.64
2023-05-08T19:44:55.947Z,13.59
2023-05-08T19:49:50.051Z,13.40
2023-05-08T19:54:47.651Z,13.62
2023-05-08T19:59:40.866Z,13.54
2023-05-08T20:04:48.561Z,13.53
2023-05-08T20:11:10.832Z,13.60
2023-05-08T20:28:29.612Z,12.37
2023-05-08T20:34:01.601Z,12.97
2023-05-08T20:45:46.643Z,13.25
2023-05-08T20:50:39.801Z,13.24
2023-05-08T20:55:32.912Z,13.16
2023-05-08T21:00:26.147Z,12.94
2023-05-08T21:05:23.710Z,12.83
2023-05-08T21:10:16.918Z,12.71
2023-05-08T21:15:10.333Z,12.76
2023-05-08T21:20:03.450Z,12.70
2023-05-08T21:24:57.922Z,12.66
2023-05-08T21:29:51.009Z,12.33
2023-05-08T21:34:44.057Z,12.45
2023-05-08T21:39:37.107Z,12.30
2023-05-08T21:44:31.714Z,12.27
2023-05-08T21:49:24.946Z,12.11
2023-05-08T21:54:18.108Z,12.10
2023-05-08T21:59:11.217Z,12.06
2023-05-08T22:04:05.756Z,12.17
2023-05-08T22:08:59.036Z,12.14
2023-05-08T22:13:52.206Z,12.11
2023-05-08T22:18:45.268Z,12.09
2023-05-08T22:23:39.780Z,11.89
2023-05-08T22:28:33.021Z,11.97
2023-05-08T22:33:26.153Z,11.58
2023-05-08T22:38:21.244Z,11.72
2023-05-08T22:43:15.851Z,11.52
2023-05-08T22:48:09.580Z,11.57
2023-05-08T22:53:07.895Z,11.54
2023-05-08T22:58:01.414Z,11.48
2023-05-08T23:02:56.564Z,11.28
2023-05-08T23:07:49.964Z,11.35
2023-05-08T23:12:43.147Z,11.19
2023-05-08T23:17:36.761Z,11.26
2023-05-08T23:22:31.324Z,11.24
2023-05-08T23:27:24.495Z,11.24
2023-05-08T23:32:17.816Z,11.19
2023-05-08T23:37:10.925Z,11.15
2023-05-08T23:42:07.870Z,11.12
2023-05-08T23:47:01.326Z,11.14
2023-05-08T23:51:54.541Z,11.13
2023-05-08T23:56:47.632Z,11.07
